Sunday, November 19, 2017, 8:43 PM EST
Back to Local

KCEF, Chicopee Falls / Westover Air Force Base

Location: Chicopee, MA, United States Lat: 42.2
Local Time: 8:43 PM EST ( 1:43 GMT) Lon: -72.533
Time Zone: US/Eastern Elev: 246 ft

Show me the last for .
Show Decoded

2017-11-19 19:56 METAR KCEF 200056Z 29014KT 10SM BKN040 03/M04 A2961 RMK AO2A PK WND 28027/05
                 SLP034 T00341041 =
2017-11-19 18:56 METAR KCEF 192356Z 29020G30KT 10SM BKN040 04/M05 A2959 RMK AO2A PK WND 27035/15
                 SLP027 T00391048 10077 20037 52032 =
2017-11-19 17:56 METAR KCEF 192256Z 30020G33KT 10SM SCT040 04/M05 A2954 RMK AO2A SLP010 T00401055
                 =
2017-11-19 16:56 METAR KCEF 192156Z 29018G31KT 10SM BKN038 04/M04 A2952 RMK AO2A PK WND 29036/00
                 SLP003 T00431037 =
2017-11-19 15:56 METAR KCEF 192056Z 30025G33KT 10SM BKN039 05/M04 A2949 RMK AO2A PK WND 28036/10
                 SLP993 T00481037 52046 =
2017-11-19 14:56 METAR KCEF 191956Z 30020G28KT 10SM BKN039 05/M04 A2945 RMK AO2A PK WND 31040/45
                 SLP980 T00531038 =
2017-11-19 13:56 METAR KCEF 191856Z 30025G33KT 10SM BKN044 06/M03 A2940 RMK AO2A PK WND 28037/35
                 SLP963 T00611035 =
2017-11-19 12:56 METAR KCEF 191756Z 30022G31KT 10SM BKN040 08/M02 A2936 RMK AO2A PK WND 31043/00
                 SLP949 60007 T00781020 10138 20071 52058 =
2017-11-19 11:56 METAR KCEF 191656Z 27028G36KT 10SM BKN035 07/M01 A2931 RMK AO2A PK WND 29037/42
                 SLP932 T00731009 =
2017-11-19 10:56 METAR KCEF 191556Z 31019G36KT 10SM FEW028 SCT046 BKN060 07/01 A2927 RMK AO2A PK
                 WND 32036/44 PRESRR SLP919 P0000 T00740010 =
2017-11-19 10:28 METAR KCEF 191528Z 29017G31KT 10SM SCT036 OVC044 08/04 A2923 RMK AO2A PRESRR
                 SLP905 =
2017-11-19 10:15 METAR KCEF 191515Z 30021G30KT 10SM -RA SCT027 OVC037 09/04 A2921 RMK AO2A PRESRR
                 SLP898 =
2017-11-19 09:56 METAR KCEF 191456Z 30026G40KT 10SM FEW020 BKN030 OVC060 11/06 A2919 RMK AO2A
                 PRESRR SLP891 P0001 60007 T01110064 53010 =
2017-11-19 09:48 METAR KCEF 191448Z 26018G28KT 10SM FEW029 BKN035 OVC060 13/11 A2916 RMK AO2A
                 WSHFT 38 SLP881 =
2017-11-19 08:56 METAR KCEF 191356Z 21012G21KT 10SM -RA FEW007 BKN032 OVC055 14/12 A2912 RMK AO2A
                 SLP868 P0002 T01360120 =
2017-11-19 07:56 METAR KCEF 191256Z 18012KT 10SM -RA BKN009 OVC035 13/12 A2914 RMK AO2A SLP875
                 P0004 T01330122 =
2017-11-19 06:56 METAR KCEF 191156Z COR 19012KT 5SM -RA BR OVC008 13/12 A2915 RMK AO2A SLP878
                 P0007 60014 70023 T01310120 10132 20035 57027 COR 1201 =
2017-11-19 06:46 METAR KCEF 191146Z AUTO 18009G18KT 10SM -RA OVC008 13/12 A2915 RMK AO2
                 RAE37RAB46 CIG 007 RWY05 PRESFR SLP878 =
2017-11-19 06:37 METAR KCEF 191137Z AUTO 19012G18KT 10SM OVC008 13/12 A2917 RMK AO2 RAE37 CIG 007
                 RWY05 SLP885 =
2017-11-19 06:11 METAR KCEF 191111Z AUTO 20013G21KT 10SM -RA OVC009 13/12 A2919 RMK AO2 OVC V BKN
                 CIG 007 RWY05 SLP891 =
2017-11-19 05:56 METAR KCEF 191056Z AUTO 19014KT 10SM -RA OVC010 13/12 A2918 RMK AO2
                 DZE0956RAB0956 OVC V BKN CIG 007 RWY05 PRESRR SLP888 P0003 T01310118 =
2017-11-19 05:41 METAR KCEF 191041Z AUTO 18013G19KT 10SM -RA BKN011 OVC021 13/12 A2916 RMK AO2
                 DZE0956RAB0956 CIG 011V021 BKN V SCT CIG 008 RWY05 SLP881 =
2017-11-19 04:56 METAR KCEF 190956Z AUTO 17014KT 10SM -DZ OVC022 13/11 A2920 RMK AO2
                 RAB05E44DZB44 CIG 020 RWY05 SLP895 P0003 T01260113 =
2017-11-19 04:05 METAR KCEF 190905Z AUTO 18012KT 10SM -RA OVC021 11/10 A2923 RMK AO2 RAB05 CIG
                 020 RWY05 SLP905 =
2017-11-19 03:56 METAR KCEF 190856Z AUTO 18011KT 10SM OVC021 09/09 A2923 RMK AO2 RAE00RAB18E31
                 CIG 020 RWY05 PRESFR SLP905 P0000 60001 T00920087 57047 =
2017-11-19 03:31 METAR KCEF 190831Z AUTO 17006KT 5SM BR FEW002 OVC021 05/04 A2926 RMK AO2 VIS 2
                 1/2 RWY05 RAE00RAB18E31 CIG 019 RWY05 SLP916 =
2017-11-19 03:18 METAR KCEF 190818Z AUTO 00000KT 5SM -RA BR SCT002 OVC021 05/04 A2927 RMK AO2
                 RAE00RAB18 CIG 010V021 CIG 019 RWY05 SLP919 =
2017-11-19 03:15 METAR KCEF 190815Z AUTO 00000KT 5SM BR SCT002 OVC021 05/04 A2927 RMK AO2 RAE00
                 CIG 010V021 CIG 019 RWY05 SLP919 =
2017-11-19 03:00 METAR KCEF 190800Z AUTO 00000KT 5SM BR BKN002 BKN010 OVC021 05/04 A2928 RMK AO2
                 RAE00 SLP922 =
2017-11-19 02:56 METAR KCEF 190756Z AUTO 00000KT 5SM -RA BR BKN002 BKN010 OVC021 04/04 A2928 RMK
                 AO2 RAB22 BKN002 V OVC PRESFR SLP922 P0001 T00440037 =
2017-11-19 02:37 METAR KCEF 190737Z AUTO 00000KT 5SM -RA BR OVC002 04/04 A2930 RMK AO2 RAB22
                 SLP929 =
2017-11-19 02:22 METAR KCEF 190722Z AUTO 00000KT 5SM -RA BR OVC003 04/03 A2931 RMK AO2 RAB22
                 SLP933 =
2017-11-19 01:56 METAR KCEF 190656Z AUTO 00000KT 6SM BR OVC003 04/03 A2933 RMK AO2 SLP939
                 T00390032 =
2017-11-19 01:27 METAR KCEF 190627Z AUTO 00000KT 6SM BR OVC004 04/03 A2934 RMK AO2 PRESFR SLP943
                 =
2017-11-19 01:12 METAR KCEF 190612Z AUTO 02003KT 7SM OVC005 04/03 A2936 RMK AO2 CIG 005V007
                 SLP950 =
2017-11-19 00:57 METAR KCEF 190557Z AUTO 00000KT 8SM OVC007 04/03 A2937 RMK AO2 SLP953 =
2017-11-19 00:56 METAR KCEF 190556Z AUTO 00000KT 8SM OVC008 04/03 A2937 RMK AO2 RAB0459E15 CIG
                 007 RWY05 PRESFR SLP953 P0001 60007 T00350028 10035 20017 57045 =
2017-11-19 00:45 METAR KCEF 190545Z AUTO 00000KT 9SM OVC008 04/03 A2939 RMK AO2 RAB0459E15 CIG
                 008V010 SLP960 =
2017-11-19 00:15 METAR KCEF 190515Z AUTO 00000KT 8SM OVC012 04/03 A2940 RMK AO2 RAB0459E15 OVC V
                 BKN CIG 011 RWY05 SLP963 =
2017-11-18 23:59 METAR KCEF 190459Z AUTO 00000KT 6SM -RA BR BKN014 OVC019 03/03 A2941 RMK AO2
                 RAB59 CIG 013 RWY05 SLP967 =
2017-11-18 23:56 METAR KCEF 190456Z AUTO 00000KT 6SM BR OVC016 03/03 A2942 RMK AO2 RAE23 CIG 013
                 RWY05 SLP970 P0001 T00340027 400511080 =
2017-11-18 23:50 METAR KCEF 190450Z AUTO 00000KT 7SM FEW005 OVC016 04/03 A2942 RMK AO2 RAE23 CIG
                 015 RWY05 SLP970 =
2017-11-18 23:38 METAR KCEF 190438Z AUTO 00000KT 7SM BKN019 BKN040 OVC055 03/02 A2943 RMK AO2
                 RAE23 CIG 019V045 PRESFR SLP974 =
2017-11-18 23:23 METAR KCEF 190423Z AUTO 00000KT 7SM FEW004 BKN045 OVC050 03/02 A2945 RMK AO2
                 RAE23 SLP981 =
2017-11-18 23:11 METAR KCEF 190411Z AUTO 00000KT 8SM -RA SCT004 OVC050 03/02 A2946 RMK AO2 PRESFR
                 SLP984 =
2017-11-18 22:56 METAR KCEF 190356Z 00000KT 5SM -RA BR BKN007 OVC020 03/02 A2948 RMK AO2A SLP991
                 P0001 T00250016 =
2017-11-18 21:56 METAR KCEF 190256Z 00000KT 10SM -RA BKN007 OVC025 02/01 A2951 RMK AO2A SLP001
                 P0001 60004 T00230013 57034 =
2017-11-18 21:51 METAR KCEF 190251Z 00000KT 10SM -RA BKN007 OVC025 02/01 A2951 RMK AO2A SLP001 =
2017-11-18 20:56 METAR KCEF 190156Z 00000KT 10SM -RA SCT008 OVC028 02/01 A2953 RMK AO2A PRESFR
                 SLP008 T00180008 =

Support USWX by starting your Amazon purchase here.